createdAt,value
2019-02-21T13:00:19.724Z,41.68
2019-02-21T13:02:54.949Z,46.18
2019-02-21T13:05:40.576Z,61.95
2019-02-21T13:08:01.861Z,38.70
2019-02-21T13:10:37.483Z,49.03
2019-02-21T13:13:13.477Z,46.30
2019-02-21T13:15:49.499Z,39.38
2019-02-21T13:18:18.688Z,48.08
2019-02-21T13:20:48.139Z,40.00
2019-02-21T13:23:23.473Z,35.83
2019-02-21T13:25:59.150Z,41.23
2019-02-21T13:28:34.673Z,39.98
2019-02-21T13:31:03.855Z,37.58
2019-02-21T13:33:39.712Z,42.98
2019-02-21T13:36:08.892Z,44.35
2019-02-21T13:38:52.466Z,43.17
2019-02-21T13:41:21.604Z,36.77
2019-02-21T13:43:58.858Z,35.15
2019-02-21T13:46:36.771Z,37.28
2019-02-21T13:48:59.385Z,38.17
2019-02-21T13:51:35.420Z,44.00
2019-02-21T13:54:04.673Z,39.30
2019-02-21T13:56:42.757Z,37.80
2019-02-21T13:59:25.586Z,32.85
2019-02-21T14:02:01.631Z,28.32
2019-02-21T14:04:37.520Z,28.27
2019-02-21T14:07:19.462Z,30.08
2019-02-21T14:09:55.530Z,33.55
2019-02-21T14:12:32.979Z,41.77
2019-02-21T14:15:14.474Z,47.23
2019-02-21T14:17:56.613Z,44.25
2019-02-21T14:20:32.614Z,45.55
2019-02-21T14:23:15.028Z,52.15
2019-02-21T14:25:50.696Z,48.70
2019-02-21T14:28:33.552Z,63.08
2019-02-21T14:31:09.465Z,81.30
2019-02-21T14:33:52.413Z,48.35
2019-02-21T14:36:35.246Z,38.43
2019-02-21T14:39:17.394Z,32.73
2019-02-21T14:41:59.720Z,27.95
2019-02-21T14:44:49.601Z,27.85
2019-02-21T14:47:25.959Z,27.48
2019-02-21T14:50:08.368Z,28.32
2019-02-21T14:52:45.898Z,29.05
2019-02-21T14:55:31.079Z,26.00
2019-02-21T14:58:07.621Z,29.98
2019-02-21T15:00:51.750Z,33.15
2019-02-21T15:03:29.739Z,28.52
2019-02-21T15:06:05.713Z,32.00
2019-02-21T15:08:41.473Z,36.50
2019-02-21T15:11:17.528Z,35.95
2019-02-21T15:13:59.514Z,27.95
2019-02-21T15:16:36.676Z,28.23
2019-02-21T15:19:12.767Z,28.45
2019-02-21T15:21:47.999Z,29.90
2019-02-21T15:24:30.419Z,26.35
2019-02-21T15:27:12.987Z,28.20
2019-02-21T15:29:48.277Z,28.30
2019-02-21T15:32:24.019Z,36.42
2019-02-21T15:35:06.213Z,35.25
2019-02-21T15:37:54.988Z,36.55
2019-02-21T15:40:38.835Z,36.85
2019-02-21T15:43:08.019Z,36.80
2019-02-21T15:45:43.813Z,45.00
2019-02-21T15:48:22.442Z,33.85
2019-02-21T15:51:06.155Z,29.65
2019-02-21T15:56:17.627Z,30.00
2019-02-21T15:59:00.615Z,29.67
2019-02-21T16:01:46.926Z,32.87
2019-02-21T16:04:21.772Z,29.12
2019-02-21T16:06:56.929Z,26.80
2019-02-21T16:09:33.362Z,30.85
2019-02-21T16:12:15.463Z,42.08
2019-02-21T16:14:51.195Z,36.28
2019-02-21T16:17:37.113Z,37.23
2019-02-21T16:20:21.615Z,50.10
2019-02-21T16:22:59.288Z,33.58
2019-02-21T16:25:42.604Z,39.13
2019-02-21T16:28:19.664Z,35.30
2019-02-21T16:31:01.757Z,48.63
2019-02-21T16:33:37.392Z,44.70
2019-02-21T16:36:19.485Z,45.03
2019-02-21T16:38:48.779Z,43.28
2019-02-21T16:41:36.409Z,35.98
2019-02-21T16:46:43.436Z,41.42
2019-02-21T16:49:19.104Z,43.38
2019-02-21T16:52:01.273Z,40.60
2019-02-21T16:54:37.448Z,54.83
2019-02-21T16:57:19.470Z,49.20
2019-02-21T16:59:55.837Z,54.48
2019-02-21T17:02:38.042Z,63.17
2019-02-21T17:05:26.633Z,49.98
2019-02-21T17:08:08.852Z,43.87
2019-02-21T17:10:45.327Z,82.10
2019-02-21T17:13:27.800Z,82.15
2019-02-21T17:16:04.036Z,85.03
2019-02-21T17:18:46.279Z,92.55
2019-02-21T17:21:23.485Z,80.57
2019-02-21T17:24:07.562Z,54.60
2019-02-21T17:26:38.444Z,47.00
2019-02-21T17:29:20.443Z,46.15
2019-02-21T17:32:02.616Z,38.30
2019-02-21T17:34:40.826Z,31.57
2019-02-21T17:37:24.639Z,36.50
2019-02-21T17:39:59.950Z,42.95
2019-02-21T17:42:42.504Z,56.63
2019-02-21T17:45:18.307Z,36.80
2019-02-21T17:47:55.419Z,43.52
2019-02-21T17:50:30.994Z,25.25
2019-02-21T17:53:12.696Z,25.55
2019-02-21T17:55:48.225Z,34.45
2019-02-21T17:58:30.459Z,32.67
2019-02-21T18:01:12.701Z,29.00
2019-02-21T18:04:02.089Z,30.92
2019-02-21T18:06:44.345Z,33.85
2019-02-21T18:09:20.382Z,36.08
2019-02-21T18:12:03.189Z,34.63
2019-02-21T18:14:38.475Z,33.03
2019-02-21T18:17:19.963Z,24.95
2019-02-21T18:19:55.889Z,20.15
2019-02-21T18:22:39.622Z,21.90
2019-02-21T18:28:03.495Z,19.70
2019-02-21T18:30:39.798Z,18.02
2019-02-21T18:33:23.035Z,15.90
2019-02-21T18:35:59.000Z,18.95
2019-02-21T18:38:35.579Z,18.37
2019-02-21T18:41:11.329Z,20.77
2019-02-21T18:43:53.632Z,16.65
2019-02-21T18:46:35.771Z,19.70
2019-02-21T18:49:11.523Z,13.48
2019-02-21T18:51:54.508Z,18.42
2019-02-21T18:54:30.573Z,17.77
2019-02-21T18:57:05.878Z,24.23
2019-02-21T18:59:48.059Z,18.77
2019-02-21T19:02:37.804Z,19.40
2019-02-21T19:05:20.195Z,24.40
2019-02-21T19:08:04.151Z,19.73
2019-02-21T19:10:39.445Z,22.02
2019-02-21T19:13:15.377Z,24.05
2019-02-21T19:15:58.237Z,17.87
2019-02-21T19:18:34.330Z,21.90
2019-02-21T19:21:17.691Z,21.10
2019-02-21T19:23:54.304Z,19.65
2019-02-21T19:26:36.628Z,18.95
2019-02-21T19:29:25.317Z,21.70
2019-02-21T19:32:07.628Z,22.90
2019-02-21T19:34:49.909Z,25.80
2019-02-21T19:37:26.003Z,17.00
2019-02-21T19:40:08.964Z,28.95
2019-02-21T19:42:58.434Z,18.20
2019-02-21T19:45:33.901Z,28.38
2019-02-21T19:48:16.518Z,18.25
2019-02-21T19:50:58.983Z,21.42
2019-02-21T19:53:35.092Z,20.85
2019-02-21T19:56:17.754Z,15.80
2019-02-21T19:58:46.923Z,17.35
2019-02-21T20:01:29.185Z,18.67
2019-02-21T20:04:11.390Z,17.70
2019-02-21T20:06:47.189Z,16.97
2019-02-21T20:09:23.219Z,18.37
2019-02-21T20:11:59.078Z,18.90
2019-02-21T20:14:35.390Z,18.35
2019-02-21T20:17:17.682Z,17.30
2019-02-21T20:20:00.687Z,17.23
2019-02-21T20:22:49.419Z,18.42
2019-02-21T20:25:31.608Z,12.85
2019-02-21T20:28:07.789Z,15.75
2019-02-21T20:30:49.753Z,19.52
2019-02-21T20:33:25.648Z,19.10
2019-02-21T20:36:08.739Z,17.55
2019-02-21T20:38:37.909Z,12.60
2019-02-21T20:41:20.305Z,19.95
2019-02-21T20:43:55.864Z,18.50
2019-02-21T20:46:37.899Z,18.12
2019-02-21T20:49:14.085Z,17.05
2019-02-21T20:51:50.172Z,17.60
2019-02-21T20:54:19.759Z,18.25
2019-02-21T20:56:55.949Z,17.17
2019-02-21T20:59:25.190Z,19.67
2019-02-21T21:02:06.969Z,22.95
2019-02-21T21:04:49.993Z,16.40
2019-02-21T21:07:25.573Z,17.60
2019-02-21T21:10:07.403Z,13.72
2019-02-21T21:12:50.510Z,14.15
2019-02-21T21:15:26.369Z,14.87
2019-02-21T21:18:16.105Z,13.18
2019-02-21T21:20:51.639Z,18.55
2019-02-21T21:23:33.943Z,17.48
2019-02-21T21:26:15.509Z,14.40
2019-02-21T21:28:54.450Z,14.03
2019-02-21T21:31:36.152Z,18.07
2019-02-21T21:34:24.891Z,12.20
2019-02-21T21:37:09.886Z,11.05
2019-02-21T21:39:45.912Z,11.55
2019-02-21T21:42:30.903Z,10.10
2019-02-21T21:45:06.896Z,9.90
2019-02-21T21:47:48.343Z,11.45
2019-02-21T21:50:26.504Z,14.70
2019-02-21T21:53:08.825Z,12.88
2019-02-21T21:55:45.015Z,13.20
2019-02-21T21:58:27.868Z,11.55
2019-02-21T22:01:10.167Z,11.08
2019-02-21T22:03:51.896Z,10.93
2019-02-21T22:06:33.966Z,10.20
2019-02-21T22:09:16.209Z,9.85
2019-02-21T22:11:51.808Z,8.95
2019-02-21T22:14:21.026Z,10.32
2019-02-21T22:16:56.261Z,12.70
2019-02-21T22:19:38.325Z,8.03
2019-02-21T22:22:13.656Z,9.73
2019-02-21T22:24:49.069Z,14.45
2019-02-21T22:27:25.064Z,9.88
2019-02-21T22:30:00.669Z,9.25
2019-02-21T22:32:36.962Z,9.33
2019-02-21T22:35:13.151Z,10.35
2019-02-21T22:37:54.911Z,10.70
2019-02-21T22:40:37.405Z,15.15
2019-02-21T22:43:19.823Z,13.83
2019-02-21T22:45:55.152Z,13.62
2019-02-21T22:48:46.876Z,13.58
2019-02-21T22:51:21.049Z,10.28
2019-02-21T22:53:57.230Z,10.65
2019-02-21T22:56:39.869Z,10.25
2019-02-21T22:59:16.058Z,9.40
2019-02-21T23:01:58.025Z,10.08
2019-02-21T23:04:38.589Z,11.97
2019-02-21T23:07:35.232Z,8.63
2019-02-21T23:10:10.652Z,10.72
2019-02-21T23:12:46.833Z,7.58
2019-02-21T23:15:28.444Z,8.43
2019-02-21T23:18:04.151Z,6.85
2019-02-21T23:20:40.201Z,10.53
2019-02-21T23:23:22.735Z,10.72
2019-02-21T23:26:05.334Z,10.40
2019-02-21T23:28:48.873Z,12.47
2019-02-21T23:34:11.024Z,11.35
2019-02-21T23:36:53.398Z,10.13
2019-02-21T23:39:38.027Z,10.60
2019-02-21T23:42:06.528Z,10.70
2019-02-21T23:44:48.545Z,9.63
2019-02-21T23:47:24.637Z,10.08
2019-02-21T23:50:07.794Z,9.85
2019-02-21T23:52:43.771Z,9.80
2019-02-21T23:55:19.057Z,9.53
2019-02-21T23:57:55.283Z,9.15
